Time;durP1;ratioP1;P1;durP2;ratioP2;P2;SDS_P1;SDS_P2;PMS_P1;PMS_P2;Temp;Humidity;BMP_temperature;BMP_pressure;BME280_temperature;BME280_humidity;BME280_pressure;Samples;Min_cycle;Max_cycle;Signal;HPM_P1;HPM_P2
2022/03/20 00:00:43;;;;;;;99.03;27.23;;;;;;;6.31;100.00;101980.66;5065243;28;20062;-76
2022/03/20 00:03:10;;;;;;;99.88;28.90;;;;;;;6.21;100.00;101973.47;5047136;28;20124;-76
2022/03/20 00:05:38;;;;;;;97.05;25.77;;;;;;;6.07;100.00;101964.69;5033874;28;20036;-77
2022/03/20 00:08:14;;;;;;;104.55;29.58;;;;;;;6.03;100.00;101971.22;5064312;28;20040;-77
2022/03/20 00:10:42;;;;;;;110.90;28.70;;;;;;;5.98;100.00;101968.06;5087381;28;20043;-76
2022/03/20 00:13:09;;;;;;;104.75;28.17;;;;;;;5.98;100.00;101970.75;5055433;28;20039;-76
2022/03/20 00:15:47;;;;;;;104.55;27.27;;;;;;;5.94;100.00;101969.25;5033909;28;20119;-77
2022/03/20 00:18:14;;;;;;;106.90;26.08;;;;;;;5.85;100.00;101957.44;5062766;28;20063;-78
2022/03/20 00:20:45;;;;;;;96.80;26.10;;;;;;;5.90;100.00;101965.06;5056883;28;20040;-78
2022/03/20 00:23:12;;;;;;;91.40;26.48;;;;;;;5.89;100.00;101963.38;5054267;28;20043;-77
2022/03/20 00:25:39;;;;;;;97.15;26.63;;;;;;;5.90;100.00;101959.72;5069451;28;20426;-78
2022/03/20 00:28:05;;;;;;;109.40;30.23;;;;;;;5.97;100.00;101947.66;5050213;28;20052;-76
2022/03/20 00:30:32;;;;;;;96.68;26.75;;;;;;;6.03;100.00;101941.00;5050882;28;20124;-76
2022/03/20 00:32:59;;;;;;;94.82;26.13;;;;;;;6.07;100.00;101947.81;5048146;28;20520;-77
2022/03/20 00:35:24;;;;;;;65.03;21.48;;;;;;;6.11;100.00;101938.59;5056688;28;20032;-76
2022/03/20 00:37:50;;;;;;;66.43;20.02;;;;;;;6.27;100.00;101944.47;5034783;28;20055;-79
2022/03/20 00:40:16;;;;;;;80.00;25.65;;;;;;;6.34;100.00;101926.97;5066472;28;20031;-78
2022/03/20 00:42:41;;;;;;;73.57;24.35;;;;;;;6.57;100.00;101938.53;5051728;28;20037;-78
2022/03/20 00:45:08;;;;;;;89.50;27.15;;;;;;;6.65;100.00;101934.44;5052640;28;20510;-78
2022/03/20 00:47:34;;;;;;;57.70;22.60;;;;;;;6.78;100.00;101938.66;5037319;28;20037;-77
2022/03/20 00:49:59;;;;;;;71.90;22.75;;;;;;;6.82;100.00;101926.75;5036705;28;20416;-77
2022/03/20 00:52:25;;;;;;;67.22;23.90;;;;;;;6.97;100.00;101935.38;5072457;28;20162;-79
2022/03/20 00:54:50;;;;;;;62.85;22.58;;;;;;;7.01;100.00;101928.81;5033067;28;20390;-78
2022/03/20 00:57:19;;;;;;;61.70;22.95;;;;;;;7.17;100.00;101936.44;5063182;28;20024;-78
2022/03/20 00:59:45;;;;;;;61.22;21.38;;;;;;;7.26;100.00;101935.69;5026119;28;20705;-76
2022/03/20 01:02:11;;;;;;;85.75;29.40;;;;;;;7.34;100.00;101920.84;5050815;28;20040;-80
2022/03/20 01:04:37;;;;;;;82.20;30.63;;;;;;;7.35;100.00;101906.47;5050964;28;20040;-80
2022/03/20 01:07:06;;;;;;;115.55;43.80;;;;;;;7.41;99.92;101909.50;5056266;28;20037;-79
2022/03/20 01:09:31;;;;;;;133.52;43.40;;;;;;;7.43;99.37;101886.13;5065387;28;20041;-79
2022/03/20 01:11:58;;;;;;;86.50;39.03;;;;;;;7.47;99.25;101892.09;5075015;28;20543;-79
2022/03/20 01:14:25;;;;;;;111.43;49.47;;;;;;;7.45;98.52;101878.81;5080826;28;20470;-79
2022/03/20 01:16:51;;;;;;;85.07;38.38;;;;;;;7.54;98.49;101901.31;5052409;28;20070;-80
2022/03/20 01:19:17;;;;;;;62.80;28.98;;;;;;;7.56;98.13;101909.19;5065860;28;20034;-78
2022/03/20 01:21:43;;;;;;;89.85;44.05;;;;;;;7.56;97.88;101893.13;5054769;28;20435;-77
2022/03/20 01:24:08;;;;;;;58.58;28.13;;;;;;;7.57;97.72;101889.47;5040730;28;20064;-77
2022/03/20 01:26:35;;;;;;;54.42;25.25;;;;;;;7.61;98.02;101896.28;5077638;28;20028;-79
2022/03/20 01:29:02;;;;;;;49.50;23.42;;;;;;;7.61;97.40;101885.56;5034033;28;20037;-79
2022/03/20 01:31:28;;;;;;;50.63;22.90;;;;;;;7.58;97.34;101880.47;5044560;28;20041;-78
2022/03/20 01:33:54;;;;;;;54.20;22.48;;;;;;;7.62;97.72;101888.13;5066878;28;20271;-79
2022/03/20 01:36:21;;;;;;;52.33;20.42;;;;;;;7.66;96.80;101886.03;5062091;28;20024;-77
2022/03/20 01:38:47;;;;;;;56.20;22.83;;;;;;;7.55;96.20;101870.03;5053219;28;20549;-79
2022/03/20 01:41:13;;;;;;;48.20;19.02;;;;;;;7.70;96.63;101871.44;5062317;28;20044;-78
2022/03/20 01:43:51;;;;;;;58.00;23.70;;;;;;;7.74;95.30;101870.16;5074808;28;20506;-77
2022/03/20 01:46:16;;;;;;;48.85;21.52;;;;;;;7.75;95.54;101873.69;5061022;28;20497;-78
2022/03/20 01:48:42;;;;;;;52.13;22.90;;;;;;;7.72;95.63;101864.94;5066254;28;20078;-77
2022/03/20 01:51:09;;;;;;;47.88;21.95;;;;;;;7.70;95.72;101858.03;5034331;28;20032;-80
2022/03/20 01:53:35;;;;;;;38.20;15.88;;;;;;;7.72;95.47;101853.38;5081607;28;20086;-78
2022/03/20 01:56:01;;;;;;;46.53;19.55;;;;;;;7.77;95.54;101861.03;5033141;28;20099;-79
2022/03/20 01:58:27;;;;;;;54.53;22.63;;;;;;;7.79;95.51;101857.25;5044078;28;20025;-76
2022/03/20 02:00:52;;;;;;;49.92;20.90;;;;;;;7.78;95.56;101860.91;5048359;28;20039;-76
2022/03/20 02:03:19;;;;;;;46.58;20.50;;;;;;;7.81;95.34;101857.13;5046631;28;20111;-75
2022/03/20 02:05:45;;;;;;;54.25;21.92;;;;;;;7.84;94.96;101848.81;5075916;28;20044;-77
2022/03/20 02:08:14;;;;;;;45.38;16.58;;;;;;;7.86;94.87;101838.84;5066395;28;20032;-75
2022/03/20 02:10:43;;;;;;;49.30;19.77;;;;;;;7.68;94.67;101814.47;5046708;28;20134;-75
2022/03/20 02:13:08;;;;;;;44.90;20.10;;;;;;;7.84;94.71;101840.78;5065112;28;20044;-78
2022/03/20 02:15:36;;;;;;;50.00;21.65;;;;;;;7.84;94.66;101838.13;5048138;28;20166;-76
2022/03/20 02:18:03;;;;;;;51.13;20.27;;;;;;;7.85;95.20;101843.31;5044987;28;20462;-76
2022/03/20 02:20:29;;;;;;;57.90;21.70;;;;;;;7.86;94.72;101838.84;5063484;28;20035;-76
2022/03/20 02:22:55;;;;;;;56.38;20.05;;;;;;;7.86;94.67;101842.34;5072733;28;20039;-76
2022/03/20 02:25:21;;;;;;;49.53;20.23;;;;;;;7.81;94.64;101823.16;5069469;28;20028;-76
2022/03/20 02:27:47;;;;;;;46.58;20.17;;;;;;;7.88;94.62;101843.06;5069411;28;20086;-76
2022/03/20 02:30:16;;;;;;;42.88;19.05;;;;;;;7.87;94.59;101843.19;5049716;28;20048;-77
2022/03/20 02:32:44;;;;;;;52.70;22.55;;;;;;;7.88;94.69;101842.22;5053513;28;20040;-75
2022/03/20 02:35:14;;;;;;;42.40;18.63;;;;;;;7.87;94.21;101829.81;5053169;28;20024;-77
2022/03/20 02:37:42;;;;;;;46.97;19.95;;;;;;;7.88;94.61;101835.00;5052902;28;20039;-76
2022/03/20 02:40:09;;;;;;;46.63;19.52;;;;;;;7.90;94.42;101830.38;5049947;28;20044;-76
2022/03/20 02:42:35;;;;;;;47.25;19.13;;;;;;;7.89;94.89;101831.38;5066225;28;20382;-77
2022/03/20 02:45:05;;;;;;;43.38;17.23;;;;;;;7.92;94.11;101827.59;5030316;28;20028;-77
2022/03/20 02:47:38;;;;;;;52.72;20.00;;;;;;;7.91;93.97;101821.38;5042994;28;20120;-77
2022/03/20 02:50:10;;;;;;;46.42;19.10;;;;;;;7.91;93.94;101826.75;5073679;28;20044;-76
2022/03/20 02:52:39;;;;;;;41.67;18.67;;;;;;;7.96;93.87;101828.16;5068352;28;20039;-76
2022/03/20 02:55:05;;;;;;;45.50;18.17;;;;;;;7.99;93.93;101827.88;5071996;28;20025;-79
2022/03/20 02:57:32;;;;;;;46.13;17.35;;;;;;;7.98;93.62;101828.88;5054214;28;20082;-79
2022/03/20 03:00:04;;;;;;;42.63;16.92;;;;;;;7.98;93.01;101818.16;5066734;28;20040;-79
2022/03/20 03:02:34;;;;;;;41.63;17.67;;;;;;;7.96;93.29;101829.00;5051233;28;20048;-77
2022/03/20 03:05:00;;;;;;;42.38;17.60;;;;;;;7.94;93.64;101831.00;5053681;28;20286;-77
2022/03/20 03:07:27;;;;;;;42.20;18.63;;;;;;;8.04;93.55;101837.22;5049727;28;20371;-79
2022/03/20 03:12:37;;;;;;;41.03;17.30;;;;;;;7.97;93.09;101828.03;5073029;28;20098;-77
2022/03/20 03:15:19;;;;;;;46.22;17.15;;;;;;;7.95;93.67;101824.63;5051787;28;20066;-77
2022/03/20 03:17:46;;;;;;;44.10;17.15;;;;;;;7.97;93.95;101821.84;5038759;28;20028;-78
2022/03/20 03:20:12;;;;;;;19.67;9.60;;;;;;;7.98;93.42;101812.81;5047247;28;20064;-78
2022/03/20 03:22:38;;;;;;;43.53;18.58;;;;;;;8.00;93.43;101818.91;5038001;28;20043;-78
2022/03/20 03:25:05;;;;;;;39.40;17.50;;;;;;;7.95;93.66;101800.53;5065351;28;20058;-79
2022/03/20 03:27:31;;;;;;;46.20;19.95;;;;;;;7.99;92.86;101799.31;5034191;28;20509;-78
2022/03/20 03:29:56;;;;;;;38.90;16.08;;;;;;;7.91;93.24;101796.41;5035277;28;20048;-78
2022/03/20 03:32:22;;;;;;;41.83;18.35;;;;;;;7.91;93.05;101801.78;5053516;28;20036;-79
2022/03/20 03:37:32;;;;;;;41.10;15.63;;;;;;;7.77;93.56;101788.75;5065985;28;20032;-78
2022/03/20 03:40:00;;;;;;;42.50;16.60;;;;;;;7.69;93.74;101782.22;5052621;28;20051;-77
2022/03/20 03:42:25;;;;;;;39.75;16.67;;;;;;;7.67;93.98;101781.50;5051528;28;20050;-78
2022/03/20 03:44:51;;;;;;;37.05;16.50;;;;;;;7.70;94.23;101780.41;5069745;28;20036;-76
2022/03/20 03:47:17;;;;;;;35.63;14.98;;;;;;;7.73;93.53;101780.13;5056225;28;20040;-77
2022/03/20 03:49:43;;;;;;;38.90;15.40;;;;;;;7.71;93.50;101774.91;5055578;28;20020;-77
2022/03/20 03:52:08;;;;;;;38.92;15.77;;;;;;;7.80;93.59;101781.28;5037418;28;20043;-77
2022/03/20 03:54:34;;;;;;;36.40;15.93;;;;;;;7.88;92.73;101780.63;5069428;28;20032;-77
2022/03/20 03:56:59;;;;;;;40.53;14.55;;;;;;;7.91;92.86;101777.66;5052201;28;20035;-77
2022/03/20 03:59:25;;;;;;;27.38;12.90;;;;;;;7.97;92.75;101781.66;5035866;28;20028;-77
2022/03/20 04:01:51;;;;;;;34.05;14.45;;;;;;;7.92;92.39;101763.31;5051140;28;20052;-78
2022/03/20 04:04:16;;;;;;;37.50;14.95;;;;;;;8.01;92.12;101775.03;5065402;28;22379;-78
2022/03/20 04:06:42;;;;;;;36.67;13.65;;;;;;;8.04;91.67;101772.94;5055364;28;20024;-78
2022/03/20 04:09:08;;;;;;;34.28;14.00;;;;;;;8.05;91.30;101774.66;5040879;28;20529;-77
2022/03/20 04:11:33;;;;;;;35.45;14.18;;;;;;;8.10;90.51;101771.56;5035246;28;20036;-78
2022/03/20 04:14:02;;;;;;;28.25;11.82;;;;;;;8.11;90.44;101767.91;5055071;28;20044;-76
2022/03/20 04:16:28;;;;;;;36.20;12.63;;;;;;;8.17;90.31;101775.38;5051735;28;20037;-77
2022/03/20 04:18:53;;;;;;;32.15;13.52;;;;;;;8.14;90.16;101770.31;5047248;28;20047;-77
2022/03/20 04:21:19;;;;;;;42.67;13.55;;;;;;;8.06;90.32;101762.94;5069694;28;20060;-78
2022/03/20 04:23:49;;;;;;;26.27;12.27;;;;;;;8.05;90.22;101769.28;5066709;28;20394;-77
2022/03/20 04:26:20;;;;;;;31.15;13.20;;;;;;;8.11;90.27;101775.94;5053118;28;20454;-77
2022/03/20 04:28:47;;;;;;;27.60;10.68;;;;;;;8.13;90.33;101774.81;5068718;28;20039;-78
2022/03/20 04:31:16;;;;;;;29.15;12.52;;;;;;;8.19;89.13;101778.78;5067650;28;20033;-77
2022/03/20 04:33:43;;;;;;;23.45;11.80;;;;;;;8.20;89.65;101780.47;5049505;28;20024;-78
2022/03/20 04:36:09;;;;;;;29.48;12.40;;;;;;;8.20;89.75;101785.84;5035004;28;20040;-77
2022/03/20 04:38:35;;;;;;;28.85;12.68;;;;;;;8.20;89.58;101780.47;5035840;28;20029;-77
2022/03/20 04:41:01;;;;;;;27.40;10.15;;;;;;;8.25;89.43;101786.28;5033713;28;20395;-78
2022/03/20 04:43:27;;;;;;;34.38;12.70;;;;;;;8.26;89.30;101785.31;5054699;28;20051;-77
2022/03/20 04:45:53;;;;;;;32.17;12.32;;;;;;;8.14;89.17;101765.78;5020739;28;20146;-77
2022/03/20 04:59:18;;;;;;;26.90;12.32;;;;;;;8.16;89.89;101765.66;5053738;28;20076;-78
2022/03/20 05:01:44;;;;;;;23.90;11.20;;;;;;;8.22;89.19;101772.31;5035958;28;20049;-78
2022/03/20 05:04:10;;;;;;;23.65;10.52;;;;;;;8.16;89.50;101752.28;5062444;28;20040;-77
2022/03/20 05:06:36;;;;;;;35.78;12.95;;;;;;;8.21;89.69;101760.75;5051310;28;20032;-77
2022/03/20 05:14:30;;;;;;;29.90;12.05;;;;;;;8.19;89.90;101770.75;5066189;28;20029;-77
2022/03/20 05:16:56;;;;;;;30.73;14.48;;;;;;;8.18;89.80;101773.56;5052126;28;20051;-77
2022/03/20 05:19:21;;;;;;;31.10;14.15;;;;;;;8.18;90.14;101774.44;5035289;28;20482;-77
2022/03/20 05:21:47;;;;;;;26.25;11.50;;;;;;;8.19;90.16;101781.47;5057086;28;20028;-79
2022/03/20 05:24:13;;;;;;;19.73;12.05;;;;;;;8.20;89.88;101779.63;5049786;28;20043;-77
2022/03/20 05:26:42;;;;;;;29.05;13.27;;;;;;;8.17;89.56;101767.34;5072317;28;20075;-77
2022/03/20 05:29:08;;;;;;;31.13;13.80;;;;;;;8.18;89.77;101782.47;5037616;28;20040;-77
2022/03/20 05:31:33;;;;;;;28.33;13.75;;;;;;;8.19;89.71;101783.31;5053120;28;20036;-78
2022/03/20 05:33:59;;;;;;;30.60;12.18;;;;;;;8.06;90.08;101764.78;5050828;28;20024;-76
2022/03/20 05:36:29;;;;;;;24.88;12.32;;;;;;;8.17;89.88;101778.06;5049653;28;20463;-78
2022/03/20 05:38:56;;;;;;;25.73;13.27;;;;;;;8.18;90.08;101778.91;5034647;28;20036;-78
2022/03/20 05:44:05;;;;;;;18.67;9.00;;;;;;;8.19;89.32;101778.78;5068812;28;20028;-76
2022/03/20 05:46:33;;;;;;;29.08;13.45;;;;;;;8.15;89.09;101770.19;5049309;28;20379;-78
2022/03/20 05:48:59;;;;;;;25.65;12.90;;;;;;;8.17;89.66;101775.38;5036353;28;20040;-76
2022/03/20 05:51:24;;;;;;;35.33;14.00;;;;;;;8.20;89.67;101779.63;5070154;28;20470;-77
2022/03/20 05:53:50;;;;;;;29.10;12.38;;;;;;;8.17;90.19;101778.06;5064660;28;20063;-78
2022/03/20 05:59:05;;;;;;;26.80;10.68;;;;;;;8.18;89.99;101779.78;5054977;28;20039;-78
2022/03/20 06:01:30;;;;;;;25.73;12.55;;;;;;;8.14;90.08;101781.88;5064580;28;20547;-76
2022/03/20 06:03:56;;;;;;;30.50;14.10;;;;;;;8.13;90.25;101782.03;5057927;28;20040;-78
2022/03/20 06:06:22;;;;;;;29.45;12.45;;;;;;;8.16;89.75;101776.38;5065526;28;20047;-77
2022/03/20 06:08:49;;;;;;;26.45;11.88;;;;;;;8.13;90.21;101780.19;5066504;28;20096;-77
2022/03/20 06:11:15;;;;;;;24.17;11.13;;;;;;;8.17;90.57;101778.06;5063422;28;20039;-77
2022/03/20 06:13:41;;;;;;;23.02;11.15;;;;;;;8.12;90.16;101777.63;5046917;28;20527;-77
2022/03/20 06:16:08;;;;;;;31.65;13.30;;;;;;;8.18;90.01;101782.47;5046070;28;20140;-78
2022/03/20 06:18:34;;;;;;;22.58;11.57;;;;;;;8.14;90.14;101781.03;5047845;28;20047;-77
2022/03/20 06:21:00;;;;;;;29.42;13.57;;;;;;;8.14;90.03;101783.69;5050224;28;20024;-76
2022/03/20 06:23:27;;;;;;;28.75;11.98;;;;;;;8.12;89.99;101789.22;5032679;28;20041;-78
2022/03/20 06:25:52;;;;;;;31.05;13.48;;;;;;;8.15;89.92;101788.94;5048499;28;20458;-76
2022/03/20 06:28:19;;;;;;;32.50;13.95;;;;;;;8.14;90.44;101781.88;5068946;28;20119;-77
2022/03/20 06:30:45;;;;;;;32.58;13.98;;;;;;;8.09;90.18;101777.91;5050970;28;20539;-76
2022/03/20 06:33:11;;;;;;;30.85;13.40;;;;;;;8.09;90.35;101776.06;5063975;28;20044;-77
2022/03/20 06:35:37;;;;;;;26.35;12.68;;;;;;;8.07;90.80;101780.72;5034694;28;20197;-78
2022/03/20 06:38:03;;;;;;;23.10;11.55;;;;;;;8.02;90.68;101771.38;5062586;28;20037;-77
2022/03/20 06:40:28;;;;;;;30.40;13.38;;;;;;;8.09;90.42;101785.94;5030500;28;20089;-77
2022/03/20 06:42:55;;;;;;;24.13;10.63;;;;;;;8.12;90.54;101781.19;5063775;28;20458;-76
2022/03/20 06:45:21;;;;;;;26.45;13.00;;;;;;;8.12;90.96;101769.59;5059852;28;20032;-78
2022/03/20 06:47:47;;;;;;;34.55;14.48;;;;;;;8.17;90.90;101778.06;5067870;28;20382;-77
2022/03/20 06:50:13;;;;;;;32.13;13.18;;;;;;;8.18;90.62;101774.44;5069737;28;20043;-77
2022/03/20 06:52:39;;;;;;;26.60;12.93;;;;;;;8.19;90.06;101767.22;5036695;28;20083;-77
2022/03/20 06:55:06;;;;;;;29.35;12.65;;;;;;;8.15;89.69;101759.47;5051627;28;20064;-77
2022/03/20 06:57:31;;;;;;;23.13;12.65;;;;;;;8.21;89.95;101773.31;5048126;28;20035;-78
2022/03/20 07:00:02;;;;;;;26.05;10.80;;;;;;;8.18;89.70;101765.50;5050322;28;20182;-77
2022/03/20 07:02:27;;;;;;;35.83;12.65;;;;;;;8.20;89.87;101774.28;5051416;28;20032;-77
2022/03/20 07:04:53;;;;;;;34.92;14.48;;;;;;;8.15;90.24;101778.22;5066859;28;20040;-77
2022/03/20 07:07:20;;;;;;;29.83;13.23;;;;;;;8.10;90.48;101776.94;5052718;28;20049;-76
2022/03/20 07:09:46;;;;;;;30.73;13.07;;;;;;;8.06;90.75;101772.81;5050135;28;20094;-77
2022/03/20 07:12:13;;;;;;;29.13;13.27;;;;;;;8.09;91.18;101784.09;5042434;28;20075;-77
2022/03/20 07:14:39;;;;;;;31.95;13.50;;;;;;;8.12;90.65;101785.66;5063230;28;20564;-77
2022/03/20 07:17:09;;;;;;;26.15;11.15;;;;;;;8.15;91.30;101790.78;5050106;28;20548;-77
2022/03/20 07:19:37;;;;;;;28.52;13.60;;;;;;;8.15;91.08;101790.78;5064859;28;20036;-77
2022/03/20 07:22:04;;;;;;;28.10;12.68;;;;;;;8.17;91.09;101802.19;5034602;28;20056;-77
2022/03/20 07:24:30;;;;;;;30.55;14.30;;;;;;;8.13;91.34;101795.41;5044954;28;20059;-77
2022/03/20 07:29:39;;;;;;;33.95;14.55;;;;;;;8.14;91.61;101786.38;5055791;28;20055;-77
2022/03/20 07:32:06;;;;;;;30.75;13.82;;;;;;;8.15;91.55;101783.59;5049898;28;20028;-77
2022/03/20 07:34:34;;;;;;;30.15;14.40;;;;;;;8.20;91.34;101791.19;5067212;28;20036;-79
2022/03/20 07:37:01;;;;;;;29.63;13.80;;;;;;;8.15;91.59;101772.03;5036041;28;20029;-78
2022/03/20 07:39:26;;;;;;;43.95;19.42;;;;;;;8.23;91.43;101780.22;5047027;28;20037;-80
2022/03/20 07:41:52;;;;;;;50.08;21.40;;;;;;;8.26;91.64;101781.78;5034093;28;20516;-77
2022/03/20 07:44:18;;;;;;;36.15;16.13;;;;;;;8.26;91.79;101779.13;5032236;28;20034;-78
2022/03/20 07:46:43;;;;;;;69.65;28.55;;;;;;;8.24;91.36;101759.63;5046182;28;20032;-77
2022/03/20 07:49:09;;;;;;;34.72;15.52;;;;;;;8.36;90.85;101770.13;5051052;28;20385;-77
2022/03/20 07:51:35;;;;;;;99.07;51.25;;;;;;;8.38;91.37;101772.66;5050256;28;20461;-79
2022/03/20 07:54:02;;;;;;;37.85;16.45;;;;;;;8.44;90.22;101761.44;5070607;28;20032;-77
2022/03/20 07:56:30;;;;;;;29.27;14.00;;;;;;;8.54;90.32;101766.78;5055751;28;20044;-78
2022/03/20 07:58:56;;;;;;;34.45;13.82;;;;;;;8.58;89.83;101762.88;5065213;28;20116;-78
2022/03/20 08:01:21;;;;;;;29.75;14.88;;;;;;;8.70;89.89;101771.63;5052966;28;20040;-78
2022/03/20 08:03:48;;;;;;;26.65;13.57;;;;;;;8.69;89.60;101748.50;5039593;28;20032;-77
2022/03/20 08:06:15;;;;;;;33.53;14.13;;;;;;;8.74;89.43;101752.44;5066779;28;20044;-77
2022/03/20 08:08:41;;;;;;;30.23;14.48;;;;;;;8.67;89.19;101731.69;5070596;28;20105;-77
2022/03/20 08:11:08;;;;;;;29.30;13.18;;;;;;;8.95;88.97;101756.84;5051200;28;20047;-76
2022/03/20 08:13:34;;;;;;;28.20;13.98;;;;;;;9.04;88.43;101766.72;5079955;28;20059;-78
2022/03/20 08:16:00;;;;;;;30.52;13.07;;;;;;;9.08;87.54;101762.78;5073448;28;20095;-78
2022/03/20 08:18:26;;;;;;;20.65;12.05;;;;;;;9.24;87.50;101767.56;5049785;28;20036;-78
2022/03/20 08:20:52;;;;;;;31.23;12.90;;;;;;;9.28;87.04;101770.78;5056198;28;20039;-77
2022/03/20 08:23:18;;;;;;;32.22;14.93;;;;;;;9.34;87.38;101759.47;5065623;28;20032;-79
2022/03/20 08:25:44;;;;;;;30.45;13.18;;;;;;;9.33;86.81;101739.00;5060108;28;20040;-76
2022/03/20 08:28:11;;;;;;;34.22;14.63;;;;;;;9.60;85.94;101762.41;5057672;28;20047;-79
2022/03/20 08:30:37;;;;;;;31.63;13.50;;;;;;;9.81;84.90;101757.69;5071326;28;20173;-78
2022/03/20 08:33:03;;;;;;;31.48;16.60;;;;;;;9.97;84.52;101756.22;5068139;28;20090;-77
2022/03/20 08:35:28;;;;;;;43.03;22.45;;;;;;;10.11;83.60;101753.06;5074870;28;20040;-77
2022/03/20 08:37:55;;;;;;;27.77;15.15;;;;;;;10.36;83.07;101762.28;5055510;28;20044;-77
2022/03/20 08:40:21;;;;;;;36.72;15.32;;;;;;;10.48;82.06;101754.88;5057049;28;20115;-77
2022/03/20 08:42:53;;;;;;;34.42;16.30;;;;;;;10.82;80.95;101763.13;5054757;28;20071;-79
2022/03/20 08:45:23;;;;;;;66.70;38.60;;;;;;;10.97;79.84;101769.66;5062985;28;20032;-78
2022/03/20 08:47:49;;;;;;;43.53;20.38;;;;;;;10.96;79.38;101759.91;5054799;28;20054;-79
2022/03/20 08:50:17;;;;;;;34.70;16.92;;;;;;;10.95;79.11;101763.59;5060449;28;20028;-78
2022/03/20 08:52:44;;;;;;;31.02;14.23;;;;;;;10.93;78.84;101765.63;5053171;28;20052;-77
2022/03/20 08:55:14;;;;;;;31.75;13.43;;;;;;;10.96;79.22;101762.59;5068407;28;20041;-76
2022/03/20 08:57:44;;;;;;;27.48;12.43;;;;;;;11.04;78.31;101759.16;5048056;28;20067;-77
2022/03/20 09:00:12;;;;;;;31.35;14.65;;;;;;;11.15;78.51;101763.44;5034455;28;20374;-77
2022/03/20 09:02:38;;;;;;;24.77;12.18;;;;;;;11.26;77.58;101756.97;5055032;28;20040;-78
2022/03/20 09:05:05;;;;;;;31.33;13.85;;;;;;;11.43;77.45;101767.72;5047595;28;20066;-77
2022/03/20 09:07:31;;;;;;;33.92;15.25;;;;;;;11.41;77.12;101750.03;5064387;28;20047;-77
2022/03/20 09:09:57;;;;;;;36.13;18.92;;;;;;;11.48;77.06;101759.16;5080873;28;20032;-78
2022/03/20 09:12:23;;;;;;;26.67;12.93;;;;;;;11.33;76.60;101731.97;5078755;28;20024;-78
2022/03/20 09:14:49;;;;;;;41.72;17.23;;;;;;;11.65;76.39;101758.28;5072218;28;20561;-77
2022/03/20 09:19:59;;;;;;;33.75;15.20;;;;;;;11.91;75.06;101746.69;5065578;28;20041;-78
2022/03/20 09:22:27;;;;;;;30.50;13.13;;;;;;;11.86;74.20;101754.41;5054283;28;20032;-78
2022/03/20 09:24:53;;;;;;;33.35;14.85;;;;;;;11.61;74.33;101737.19;5064586;28;20028;-79
2022/03/20 09:27:19;;;;;;;27.73;12.70;;;;;;;11.65;74.50;101752.06;5065830;28;20036;-77
2022/03/20 09:29:45;;;;;;;25.13;11.70;;;;;;;11.67;74.86;101744.66;5034605;28;20110;-78
2022/03/20 09:32:11;;;;;;;37.90;16.70;;;;;;;11.86;74.41;101733.69;5048100;28;20412;-78
2022/03/20 09:34:38;;;;;;;27.55;13.20;;;;;;;12.40;72.40;101737.94;5031345;28;20044;-78
2022/03/20 09:37:07;;;;;;;24.27;11.73;;;;;;;12.57;71.10;101737.00;5067293;28;20028;-79
2022/03/20 09:39:34;;;;;;;23.65;11.15;;;;;;;12.81;70.06;101740.72;5056359;28;20589;-77
2022/03/20 09:42:02;;;;;;;28.55;12.43;;;;;;;13.27;67.72;101741.13;5035586;28;20478;-77
2022/03/20 09:44:28;;;;;;;29.23;11.68;;;;;;;13.09;69.04;101739.41;5052112;28;20081;-79
2022/03/20 09:46:54;;;;;;;30.45;14.00;;;;;;;12.58;70.74;101752.16;5038918;28;20470;-78
2022/03/20 09:49:24;;;;;;;32.63;16.33;;;;;;;12.07;72.24;101754.00;5074754;28;20039;-78
2022/03/20 09:51:49;;;;;;;32.83;14.80;;;;;;;11.69;74.16;101749.88;5070367;28;20493;-79
2022/03/20 09:54:18;;;;;;;36.47;17.95;;;;;;;11.40;75.75;101746.47;5055292;28;20033;-77
2022/03/20 09:56:44;;;;;;;28.98;13.68;;;;;;;11.21;76.47;101752.88;5055163;28;20542;-78
2022/03/20 09:59:10;;;;;;;29.80;12.98;;;;;;;11.20;76.69;101753.06;5035868;28;20677;-78
2022/03/20 10:01:36;;;;;;;31.17;12.43;;;;;;;11.17;77.33;101756.91;5047658;28;20067;-77
2022/03/20 10:04:10;;;;;;;35.88;18.92;;;;;;;11.09;77.80;101758.69;5043275;28;20048;-78
2022/03/20 10:06:36;;;;;;;;;;;;;;;11.01;78.35;101756.78;5063319;28;20107;-78
2022/03/20 10:09:12;;;;;;;39.85;18.92;;;;;;;10.86;79.12;101740.31;5069888;28;19978;-82
2022/03/20 10:11:48;;;;;;;37.92;15.55;;;;;;;10.82;79.34;101733.53;5037224;28;20093;-81
2022/03/20 10:14:19;;;;;;;57.53;23.80;;;;;;;10.69;79.63;101746.50;5068588;28;20039;-82
2022/03/20 10:16:48;;;;;;;38.92;16.60;;;;;;;10.47;80.50;101743.25;5062340;28;20024;-81
2022/03/20 10:19:22;;;;;;;44.00;18.73;;;;;;;10.44;80.95;101751.63;5047474;28;20119;-81
2022/03/20 10:22:03;;;;;;;31.08;14.15;;;;;;;10.40;81.28;101755.63;5069070;28;20044;-81
2022/03/20 10:24:30;;;;;;;29.33;13.90;;;;;;;10.34;81.61;101749.00;5056223;28;20035;-81
2022/03/20 10:26:58;;;;;;;23.83;10.95;;;;;;;10.34;81.75;101742.78;5052545;28;20527;-81
2022/03/20 10:29:24;;;;;;;26.05;10.93;;;;;;;10.31;82.29;101741.22;5071690;28;20039;-81
2022/03/20 10:31:55;;;;;;;32.28;12.45;;;;;;;10.18;82.06;101726.44;5035490;28;20040;-81
2022/03/20 10:34:21;;;;;;;27.05;11.38;;;;;;;10.30;82.32;101744.09;5051904;28;20032;-80
2022/03/20 10:36:48;;;;;;;28.95;13.60;;;;;;;10.26;82.69;101743.50;5043861;28;20036;-82
2022/03/20 10:39:16;;;;;;;34.83;17.70;;;;;;;10.29;82.12;101737.00;5070757;28;20428;-80
2022/03/20 10:41:45;;;;;;;37.97;17.45;;;;;;;10.47;82.35;101748.63;5070635;28;20040;-79
2022/03/20 10:44:14;;;;;;;35.25;13.65;;;;;;;10.64;81.41;101746.13;5053576;28;20029;-82
2022/03/20 10:46:39;;;;;;;30.35;12.82;;;;;;;10.65;80.93;101737.91;5037633;28;20033;-82
2022/03/20 10:49:06;;;;;;;33.80;13.88;;;;;;;10.71;80.69;101723.84;5038111;28;20490;-81
2022/03/20 10:51:37;;;;;;;32.33;13.65;;;;;;;10.86;80.06;101743.00;5048706;28;20519;-82
2022/03/20 10:54:04;;;;;;;30.45;13.38;;;;;;;10.84;80.15;101745.00;5033500;28;20028;-81
2022/03/20 10:56:30;;;;;;;89.07;31.23;;;;;;;10.58;80.28;101720.69;5055446;28;20128;-80
2022/03/20 10:58:57;;;;;;;28.45;13.25;;;;;;;10.56;80.91;101738.84;5062885;28;20111;-80
2022/03/20 11:01:36;;;;;;;35.45;17.63;;;;;;;10.48;81.44;101746.81;5071258;28;20032;-81
2022/03/20 11:04:04;;;;;;;25.88;12.05;;;;;;;10.42;81.46;101747.41;5064366;28;20056;-82
2022/03/20 11:06:33;;;;;;;27.35;12.73;;;;;;;10.38;82.02;101736.13;5034874;28;20036;-86
2022/03/20 11:09:02;;;;;;;28.08;14.60;;;;;;;10.48;82.09;101742.28;5036918;28;20032;-88
2022/03/20 11:11:29;;;;;;;30.45;12.75;;;;;;;10.52;82.08;101737.44;5070113;28;20032;-87
2022/03/20 11:13:56;;;;;;;29.50;12.68;;;;;;;10.49;82.26;101732.38;5035119;28;20029;-88
2022/03/20 11:16:24;;;;;;;30.08;11.07;;;;;;;10.45;81.81;101726.47;5061146;28;20493;-88
2022/03/20 11:18:54;;;;;;;30.58;13.70;;;;;;;10.53;81.17;101731.91;5068517;28;20025;-88
2022/03/20 11:21:23;;;;;;;37.58;13.07;;;;;;;10.66;81.16;101714.53;5052414;28;20067;-88
2022/03/20 11:23:53;;;;;;;40.88;17.75;;;;;;;10.99;79.99;101719.25;5062146;28;20070;-88
2022/03/20 11:26:25;;;;;;;39.50;17.10;;;;;;;11.14;78.87;101702.53;5068365;28;20050;-89
2022/03/20 11:29:01;;;;;;;30.63;13.15;;;;;;;11.41;78.09;101721.25;5072189;28;20130;-87
2022/03/20 11:31:27;;;;;;;29.73;14.02;;;;;;;11.40;77.04;101716.84;5068600;28;20036;-87
2022/03/20 11:33:55;;;;;;;44.47;14.38;;;;;;;11.38;77.93;101724.25;5070017;28;20093;-87
2022/03/20 11:36:24;;;;;;;63.40;23.35;;;;;;;11.33;77.86;101718.50;5038950;28;20497;-88
2022/03/20 11:39:15;;;;;;;41.53;16.27;;;;;;;11.09;78.67;101686.03;5045532;28;20473;-88
2022/03/20 11:41:42;;;;;;;53.70;20.33;;;;;;;11.27;78.54;101713.72;5046594;28;20286;-88
2022/03/20 11:44:10;;;;;;;36.28;13.73;;;;;;;11.27;78.16;101716.41;5037868;28;20035;-87
2022/03/20 11:46:36;;;;;;;45.20;18.30;;;;;;;11.21;78.73;101709.81;5071613;28;20044;-87